Valle Di Nervion — IBPC — position and weather

sailwx.info

Track history (hours):
 
Tides and Currents Weather Stations Pressure Air Temp Water Temp Dewpoint Dewpoint Depression Visibility Wind Speed Wind Dir Waves Ship Positions

Valle Di Nervion

Last reported at 2017-Jan-22 13:32 UTC. Time now 2017-Jan-22 14:19 UTC.
Position N 39°01' E 009°22'.

Length 176 m; draft 7.1 m.

Type: Tanker. MMSI: 247109500.

Date/timePositionNaut miles runAvg speedWind from/ knotsBaromVisibWave heightAir tempDewpointWater temp
2017-Jan-22 13:32N 39°01' E 009°22'3 3.5
2017-Jan-22 12:33N 39°02' E 009°18'3 3.4
2017-Jan-22 11:32N 39°03' E 009°13'2 2.0
2017-Jan-22 10:32N 39°01' E 009°12'7 7.1
2017-Jan-22 09:33N 38°59' E 009°21'7 7.1
2017-Jan-22 08:33N 38°57' E 009°30'1 0.4
2017-Jan-22 07:22N 38°57' E 009°30'2 2.4
2017-Jan-22 06:33N 38°58' E 009°28'3 2.8
2017-Jan-22 05:33N 38°60' E 009°25'3 2.7
2017-Jan-22 04:33N 39°01' E 009°22'3 3.0
2017-Jan-22 03:33N 39°02' E 009°18'3 3.2
2017-Jan-22 02:33N 39°02' E 009°14'4 3.6
2017-Jan-22 01:33N 39°02' E 009°09'1 1.1
2017-Jan-22 00:32N 39°01' E 009°11'7 6.7
2017-Jan-21 23:32N 38°59' E 009°19'7 6.7
2017-Jan-21 22:32N 38°57' E 009°27'3 1.5
2017-Jan-21 20:33N 38°58' E 009°31'2 2.1
2017-Jan-21 19:32N 38°59' E 009°28'2 1.8
2017-Jan-21 18:33N 38°59' E 009°26'1 1.2
2017-Jan-21 17:32N 38°60' E 009°25'1 1.4
2017-Jan-21 16:33N 39°01' E 009°23'2 2.0
2017-Jan-21 15:32N 39°02' E 009°21'2 2.0
2017-Jan-21 14:33N 39°02' E 009°19'1 0.6
2017-Jan-21 13:33N 39°02' E 009°18'1 1.2
2017-Jan-21 12:33N 39°03' E 009°18'0 0.4
2017-Jan-21 11:33N 39°03' E 009°18'0 0.4
2017-Jan-21 10:33N 39°03' E 009°17'2 2.4
2017-Jan-21 09:33N 39°02' E 009°15'1 1.2
2017-Jan-21 08:32N 39°01' E 009°13'1 1.4
2017-Jan-21 07:32N 39°02' E 009°12'0 0.1
2017-Jan-21 06:33N 39°02' E 009°12'7 6.7
2017-Jan-21 05:33N 39°01' E 009°20'2 2.1
2017-Jan-21 04:33N 39°01' E 009°23'5 4.7
2017-Jan-21 03:33N 39°01' E 009°17'5 5.0
2017-Jan-21 02:32N 39°00' E 009°11'1 1.2
2017-Jan-21 01:32N 39°01' E 009°09'2 2.4
2017-Jan-21 00:33N 39°00' E 009°12'2 2.5
2017-Jan-20 23:33N 39°00' E 009°15'2 2.4
2017-Jan-20 22:33N 39°00' E 009°18'2 2.3
2017-Jan-20 21:33N 39°01' E 009°21'2 2.2
2017-Jan-20 20:33N 39°02' E 009°24'4 3.8
2017-Jan-20 19:32N 39°03' E 009°19'5 4.8
2017-Jan-20 18:33N 39°03' E 009°13'5 5.3
2017-Jan-20 17:33N 39°04' E 009°06'2 1.6
2017-Jan-20 16:32N 39°04' E 009°04'0 0.0
2017-Jan-20 15:32N 39°04' E 009°04'0 0.0
2017-Jan-20 14:32N 39°04' E 009°04'0 0.0
2017-Jan-20 13:31N 39°04' E 009°04'0 0.0
2017-Jan-20 12:31N 39°04' E 009°04'0 0.0
2017-Jan-20 11:31N 39°04' E 009°04'0 0.1
2017-Jan-20 10:31N 39°04' E 009°04'0 0.0
2017-Jan-20 09:31N 39°04' E 009°04'0 0.0
2017-Jan-20 08:31N 39°04' E 009°04'0 0.0
2017-Jan-20 07:31N 39°04' E 009°04'0 0.1
2017-Jan-20 06:31N 39°04' E 009°04'0 0.0
2017-Jan-20 05:31N 39°04' E 009°04'0 0.0
2017-Jan-20 04:31N 39°04' E 009°04'0 0.0
2017-Jan-20 03:31N 39°04' E 009°04'0 0.0
2017-Jan-20 02:31N 39°04' E 009°04'0 0.0
2017-Jan-20 01:31N 39°04' E 009°04'0 0.0
2017-Jan-20 00:31N 39°04' E 009°04'0 0.1
2017-Jan-19 23:31N 39°04' E 009°04'0 0.1
2017-Jan-19 22:28N 39°04' E 009°04'0 0.0
2017-Jan-19 21:31N 39°04' E 009°04'0 0.0
2017-Jan-19 20:31N 39°04' E 009°04'0 0.0
2017-Jan-19 19:31N 39°04' E 009°04'0 0.0
2017-Jan-19 18:31N 39°04' E 009°04'0 0.0
2017-Jan-19 17:31N 39°04' E 009°04'0 0.0
2017-Jan-19 16:31N 39°04' E 009°04'0 0.0
2017-Jan-19 15:34N 39°04' E 009°04'0 0.0
2017-Jan-19 14:33N 39°04' E 009°04'0 0.0
2017-Jan-19 13:33N 39°04' E 009°04'0 0.1
2017-Jan-19 12:33N 39°04' E 009°04'0 0.0
2017-Jan-19 11:33N 39°04' E 009°04'0 0.0
2017-Jan-19 10:33N 39°04' E 009°04'0 0.0
2017-Jan-19 09:33N 39°04' E 009°04'0 0.1
2017-Jan-19 08:30N 39°04' E 009°04'0 0.0
2017-Jan-19 07:33N 39°04' E 009°04'0 0.1
2017-Jan-19 06:33N 39°04' E 009°04'0 0.0
2017-Jan-19 05:33N 39°04' E 009°04'0 0.0
2017-Jan-19 04:33N 39°04' E 009°04'0 0.1
2017-Jan-19 03:33N 39°04' E 009°04'0 0.0
2017-Jan-19 02:33N 39°04' E 009°04'0 0.0
2017-Jan-19 01:33N 39°04' E 009°04'0 0.4
2017-Jan-19 00:33N 39°03' E 009°05'10 9.6
2017-Jan-18 23:33N 38°56' E 009°12'9 8.8
2017-Jan-18 22:33N 38°49' E 009°19'4511.4
2017-Jan-18 18:33N 38°11' E 009°52'3310.8
2017-Jan-18 15:31N 37°44' E 010°15'10 9.5
2017-Jan-18 14:31N 37°35' E 010°19'  
2017-Jan-15 02:08N 38°47' E 009°20'712.5
2017-Jan-15 01:34N 38°53' E 009°15'1312.8
2017-Jan-15 00:33N 39°04' E 009°05'2 1.6
2017-Jan-14 23:33N 39°05' E 009°03'1 1.1
2017-Jan-14 22:33N 39°05' E 009°02'0 0.0
2017-Jan-13 15:33N 39°05' E 009°02'4 3.6
2017-Jan-13 14:31N 39°03' E 009°06'0 0.1
2017-Jan-13 13:31N 39°03' E 009°06'0 0.1
2017-Jan-13 12:31N 39°03' E 009°06'0 0.3
2017-Jan-13 11:31N 39°03' E 009°06'0 0.0
2017-Jan-13 10:31N 39°03' E 009°06'0 0.0
2017-Jan-13 09:31N 39°03' E 009°06'0 0.0
2017-Jan-13 08:31N 39°03' E 009°06'0 0.0
2017-Jan-13 07:31N 39°03' E 009°06'0 0.0
2017-Jan-13 06:31N 39°03' E 009°06'0 0.0
2017-Jan-13 05:31N 39°03' E 009°06'0 0.0
2017-Jan-13 04:31N 39°03' E 009°06'0 0.1
2017-Jan-13 03:31N 39°03' E 009°06'0 0.1
2017-Jan-13 02:31N 39°03' E 009°06'0 0.0
2017-Jan-13 01:34N 39°03' E 009°06'0 0.0
2017-Jan-13 00:33N 39°03' E 009°06'0 0.0
2017-Jan-12 23:33N 39°03' E 009°06'0 0.0
2017-Jan-12 22:33N 39°03' E 009°06'0 0.0
2017-Jan-12 21:33N 39°03' E 009°06'0 0.0
2017-Jan-12 20:33N 39°03' E 009°06'0 0.0
2017-Jan-12 19:33N 39°03' E 009°06'0 0.1
2017-Jan-12 18:33N 39°03' E 009°06'0 0.0
2017-Jan-12 17:33N 39°03' E 009°06'0 0.5
2017-Jan-12 16:33N 39°03' E 009°07'1111.1
2017-Jan-12 15:32N 38°57' E 009°19'  
Track history (hours):
 
Tides and Currents Weather Stations Pressure Air Temp Water Temp Dewpoint Dewpoint Depression Visibility Wind Speed Wind Dir Waves Ship Positions

Valle Di Nervion

Last reported at 2017-Jan-22 13:32 UTC. Time now 2017-Jan-22 14:19 UTC.
Position N 39°01' E 009°22'.

Length 176 m; draft 7.1 m.

Type: Tanker. MMSI: 247109500.

Date/timePositionNaut miles runAvg speedWind from/ knotsBaromVisibWave heightAir tempDewpointWater temp
2017-Jan-22 13:32N 39°01' E 009°22'3 3.5
2017-Jan-22 12:33N 39°02' E 009°18'3 3.4
2017-Jan-22 11:32N 39°03' E 009°13'2 2.0
2017-Jan-22 10:32N 39°01' E 009°12'7 7.1
2017-Jan-22 09:33N 38°59' E 009°21'7 7.1
2017-Jan-22 08:33N 38°57' E 009°30'1 0.4
2017-Jan-22 07:22N 38°57' E 009°30'2 2.4
2017-Jan-22 06:33N 38°58' E 009°28'3 2.8
2017-Jan-22 05:33N 38°60' E 009°25'3 2.7
2017-Jan-22 04:33N 39°01' E 009°22'3 3.0
2017-Jan-22 03:33N 39°02' E 009°18'3 3.2
2017-Jan-22 02:33N 39°02' E 009°14'4 3.6
2017-Jan-22 01:33N 39°02' E 009°09'1 1.1
2017-Jan-22 00:32N 39°01' E 009°11'7 6.7
2017-Jan-21 23:32N 38°59' E 009°19'7 6.7
2017-Jan-21 22:32N 38°57' E 009°27'3 1.5
2017-Jan-21 20:33N 38°58' E 009°31'2 2.1
2017-Jan-21 19:32N 38°59' E 009°28'2 1.8
2017-Jan-21 18:33N 38°59' E 009°26'1 1.2
2017-Jan-21 17:32N 38°60' E 009°25'1 1.4
2017-Jan-21 16:33N 39°01' E 009°23'2 2.0
2017-Jan-21 15:32N 39°02' E 009°21'2 2.0
2017-Jan-21 14:33N 39°02' E 009°19'1 0.6
2017-Jan-21 13:33N 39°02' E 009°18'1 1.2
2017-Jan-21 12:33N 39°03' E 009°18'0 0.4
2017-Jan-21 11:33N 39°03' E 009°18'0 0.4
2017-Jan-21 10:33N 39°03' E 009°17'2 2.4
2017-Jan-21 09:33N 39°02' E 009°15'1 1.2
2017-Jan-21 08:32N 39°01' E 009°13'1 1.4
2017-Jan-21 07:32N 39°02' E 009°12'0 0.1
2017-Jan-21 06:33N 39°02' E 009°12'7 6.7
2017-Jan-21 05:33N 39°01' E 009°20'2 2.1
2017-Jan-21 04:33N 39°01' E 009°23'5 4.7
2017-Jan-21 03:33N 39°01' E 009°17'5 5.0
2017-Jan-21 02:32N 39°00' E 009°11'1 1.2
2017-Jan-21 01:32N 39°01' E 009°09'2 2.4
2017-Jan-21 00:33N 39°00' E 009°12'2 2.5
2017-Jan-20 23:33N 39°00' E 009°15'2 2.4
2017-Jan-20 22:33N 39°00' E 009°18'2 2.3
2017-Jan-20 21:33N 39°01' E 009°21'2 2.2
2017-Jan-20 20:33N 39°02' E 009°24'4 3.8
2017-Jan-20 19:32N 39°03' E 009°19'5 4.8
2017-Jan-20 18:33N 39°03' E 009°13'5 5.3
2017-Jan-20 17:33N 39°04' E 009°06'2 1.6
2017-Jan-20 16:32N 39°04' E 009°04'0 0.0
2017-Jan-20 15:32N 39°04' E 009°04'0 0.0
2017-Jan-20 14:32N 39°04' E 009°04'0 0.0
2017-Jan-20 13:31N 39°04' E 009°04'0 0.0
2017-Jan-20 12:31N 39°04' E 009°04'0 0.0
2017-Jan-20 11:31N 39°04' E 009°04'0 0.1
2017-Jan-20 10:31N 39°04' E 009°04'0 0.0
2017-Jan-20 09:31N 39°04' E 009°04'0 0.0
2017-Jan-20 08:31N 39°04' E 009°04'0 0.0
2017-Jan-20 07:31N 39°04' E 009°04'0 0.1
2017-Jan-20 06:31N 39°04' E 009°04'0 0.0
2017-Jan-20 05:31N 39°04' E 009°04'0 0.0
2017-Jan-20 04:31N 39°04' E 009°04'0 0.0
2017-Jan-20 03:31N 39°04' E 009°04'0 0.0
2017-Jan-20 02:31N 39°04' E 009°04'0 0.0
2017-Jan-20 01:31N 39°04' E 009°04'0 0.0
2017-Jan-20 00:31N 39°04' E 009°04'0 0.1
2017-Jan-19 23:31N 39°04' E 009°04'0 0.1
2017-Jan-19 22:28N 39°04' E 009°04'0 0.0
2017-Jan-19 21:31N 39°04' E 009°04'0 0.0
2017-Jan-19 20:31N 39°04' E 009°04'0 0.0
2017-Jan-19 19:31N 39°04' E 009°04'0 0.0
2017-Jan-19 18:31N 39°04' E 009°04'0 0.0
2017-Jan-19 17:31N 39°04' E 009°04'0 0.0
2017-Jan-19 16:31N 39°04' E 009°04'0 0.0
2017-Jan-19 15:34N 39°04' E 009°04'0 0.0
2017-Jan-19 14:33N 39°04' E 009°04'0 0.0
2017-Jan-19 13:33N 39°04' E 009°04'0 0.1
2017-Jan-19 12:33N 39°04' E 009°04'0 0.0
2017-Jan-19 11:33N 39°04' E 009°04'0 0.0
2017-Jan-19 10:33N 39°04' E 009°04'0 0.0
2017-Jan-19 09:33N 39°04' E 009°04'0 0.1
2017-Jan-19 08:30N 39°04' E 009°04'0 0.0
2017-Jan-19 07:33N 39°04' E 009°04'0 0.1
2017-Jan-19 06:33N 39°04' E 009°04'0 0.0
2017-Jan-19 05:33N 39°04' E 009°04'0 0.0
2017-Jan-19 04:33N 39°04' E 009°04'0 0.1
2017-Jan-19 03:33N 39°04' E 009°04'0 0.0
2017-Jan-19 02:33N 39°04' E 009°04'0 0.0
2017-Jan-19 01:33N 39°04' E 009°04'0 0.4
2017-Jan-19 00:33N 39°03' E 009°05'10 9.6
2017-Jan-18 23:33N 38°56' E 009°12'9 8.8
2017-Jan-18 22:33N 38°49' E 009°19'4511.4
2017-Jan-18 18:33N 38°11' E 009°52'3310.8
2017-Jan-18 15:31N 37°44' E 010°15'10 9.5
2017-Jan-18 14:31N 37°35' E 010°19'  
2017-Jan-15 02:08N 38°47' E 009°20'712.5
2017-Jan-15 01:34N 38°53' E 009°15'1312.8
2017-Jan-15 00:33N 39°04' E 009°05'2 1.6
2017-Jan-14 23:33N 39°05' E 009°03'1 1.1
2017-Jan-14 22:33N 39°05' E 009°02'0 0.0
2017-Jan-13 15:33N 39°05' E 009°02'4 3.6
2017-Jan-13 14:31N 39°03' E 009°06'0 0.1
2017-Jan-13 13:31N 39°03' E 009°06'0 0.1
2017-Jan-13 12:31N 39°03' E 009°06'0 0.3
2017-Jan-13 11:31N 39°03' E 009°06'0 0.0
2017-Jan-13 10:31N 39°03' E 009°06'0 0.0
2017-Jan-13 09:31N 39°03' E 009°06'0 0.0
2017-Jan-13 08:31N 39°03' E 009°06'0 0.0
2017-Jan-13 07:31N 39°03' E 009°06'0 0.0
2017-Jan-13 06:31N 39°03' E 009°06'0 0.0
2017-Jan-13 05:31N 39°03' E 009°06'0 0.0
2017-Jan-13 04:31N 39°03' E 009°06'0 0.1
2017-Jan-13 03:31N 39°03' E 009°06'0 0.1
2017-Jan-13 02:31N 39°03' E 009°06'0 0.0
2017-Jan-13 01:34N 39°03' E 009°06'0 0.0
2017-Jan-13 00:33N 39°03' E 009°06'0 0.0
2017-Jan-12 23:33N 39°03' E 009°06'0 0.0
2017-Jan-12 22:33N 39°03' E 009°06'0 0.0
2017-Jan-12 21:33N 39°03' E 009°06'0 0.0
2017-Jan-12 20:33N 39°03' E 009°06'0 0.0
2017-Jan-12 19:33N 39°03' E 009°06'0 0.1
2017-Jan-12 18:33N 39°03' E 009°06'0 0.0
2017-Jan-12 17:33N 39°03' E 009°06'0 0.5
2017-Jan-12 16:33N 39°03' E 009°07'1111.1
2017-Jan-12 15:32N 38°57' E 009°19'  

Dump ship's entire track history